createdAt,value
2022-08-26T00:01:24.278Z,76.03
2022-08-26T00:03:56.472Z,76.22
2022-08-26T00:06:22.914Z,76.25
2022-08-26T00:08:49.304Z,76.02
2022-08-26T00:11:15.716Z,76.04
2022-08-26T00:13:53.833Z,76.10
2022-08-26T00:16:20.593Z,76.46
2022-08-26T00:18:46.993Z,76.36
2022-08-26T00:21:13.455Z,76.30
2022-08-26T00:23:40.505Z,76.40
2022-08-26T00:26:06.928Z,76.55
2022-08-26T00:28:35.745Z,76.51
2022-08-26T00:31:02.494Z,76.41
2022-08-26T00:33:29.971Z,76.66
2022-08-26T00:35:56.635Z,76.44
2022-08-26T00:38:23.815Z,76.75
2022-08-26T00:40:56.253Z,76.65
2022-08-26T00:43:24.002Z,76.74
2022-08-26T00:46:04.719Z,76.69
2022-08-26T00:48:33.846Z,76.98
2022-08-26T00:51:07.023Z,77.05
2022-08-26T00:53:39.291Z,77.07
2022-08-26T00:56:22.704Z,77.15
2022-08-26T00:58:50.209Z,76.92
2022-08-26T01:01:17.800Z,76.69
2022-08-26T01:03:46.206Z,77.07
2022-08-26T01:06:13.808Z,76.91
2022-08-26T01:08:40.781Z,76.97
2022-08-26T01:11:08.279Z,77.08
2022-08-26T01:13:36.788Z,76.98
2022-08-26T01:16:06.218Z,77.02
2022-08-26T01:18:33.288Z,76.98
2022-08-26T01:21:10.052Z,76.97
2022-08-26T01:23:41.165Z,76.92
2022-08-26T01:26:22.634Z,77.03
2022-08-26T01:28:53.782Z,77.02
2022-08-26T01:31:29.623Z,77.38
2022-08-26T01:34:12.234Z,77.19
2022-08-26T01:36:40.037Z,77.19
2022-08-26T01:39:07.776Z,77.33
2022-08-26T01:41:35.041Z,77.24
2022-08-26T01:44:05.000Z,77.24
2022-08-26T01:46:32.260Z,77.36
2022-08-26T01:49:06.757Z,77.60
2022-08-26T01:51:39.245Z,77.61
2022-08-26T01:54:11.971Z,77.79
2022-08-26T01:56:40.486Z,77.76
2022-08-26T01:59:10.726Z,77.70
2022-08-26T02:01:39.075Z,77.73
2022-08-26T02:04:40.938Z,77.81
2022-08-26T02:07:10.117Z,77.83
2022-08-26T02:09:41.378Z,77.78
2022-08-26T02:12:10.366Z,77.62
2022-08-26T02:14:43.800Z,78.02
2022-08-26T02:17:11.742Z,77.76
2022-08-26T02:19:41.886Z,77.74
2022-08-26T02:22:14.194Z,77.70
2022-08-26T02:24:55.789Z,77.61
2022-08-26T02:27:25.220Z,77.90
2022-08-26T02:30:06.904Z,77.83
2022-08-26T02:32:33.508Z,77.99
2022-08-26T02:35:01.374Z,78.01
2022-08-26T02:37:30.465Z,78.12
2022-08-26T02:39:57.054Z,77.81
2022-08-26T02:42:23.599Z,77.81
2022-08-26T02:44:51.715Z,77.96
2022-08-26T02:47:18.207Z,77.80
2022-08-26T02:49:47.485Z,77.69
2022-08-26T02:52:14.212Z,77.84
2022-08-26T02:54:40.638Z,77.79
2022-08-26T02:57:07.135Z,77.88
2022-08-26T02:59:35.886Z,77.88
2022-08-26T03:02:03.054Z,78.04
2022-08-26T03:04:30.375Z,78.14
2022-08-26T03:06:59.939Z,77.96
2022-08-26T03:09:27.134Z,78.20
2022-08-26T03:11:55.255Z,77.89
2022-08-26T03:14:23.859Z,77.96
2022-08-26T03:16:53.955Z,77.97
2022-08-26T03:19:22.572Z,78.25
2022-08-26T03:21:49.412Z,78.24
2022-08-26T03:24:17.452Z,78.15
2022-08-26T03:26:52.597Z,78.14
2022-08-26T03:29:38.846Z,77.98
2022-08-26T03:32:06.165Z,78.17
2022-08-26T03:34:33.247Z,78.44
2022-08-26T03:36:59.832Z,78.93
2022-08-26T03:39:26.471Z,78.88
2022-08-26T03:41:54.180Z,78.99
2022-08-26T03:44:21.404Z,78.91
2022-08-26T03:46:47.818Z,78.69
2022-08-26T03:49:15.168Z,78.62
2022-08-26T03:51:42.175Z,78.54
2022-08-26T03:54:09.295Z,78.31
2022-08-26T03:56:36.609Z,78.25
2022-08-26T03:59:04.343Z,78.03
2022-08-26T04:01:31.410Z,78.13
2022-08-26T04:04:00.373Z,77.79
2022-08-26T04:06:33.843Z,77.67
2022-08-26T04:09:05.354Z,77.73
2022-08-26T04:11:34.220Z,77.62
2022-08-26T04:14:04.886Z,77.49
2022-08-26T04:16:31.915Z,77.50
2022-08-26T04:18:58.507Z,77.37
2022-08-26T04:21:26.501Z,77.30
2022-08-26T04:23:54.244Z,77.46
2022-08-26T04:26:22.804Z,77.28
2022-08-26T04:28:51.389Z,77.07
2022-08-26T04:31:18.907Z,77.16
2022-08-26T04:33:49.578Z,77.11
2022-08-26T04:36:17.192Z,77.40
2022-08-26T04:38:45.710Z,77.31
2022-08-26T04:41:15.236Z,77.16
2022-08-26T04:43:44.645Z,77.24
2022-08-26T04:46:13.634Z,77.31
2022-08-26T04:48:40.851Z,77.12
2022-08-26T04:51:08.036Z,77.36
2022-08-26T04:53:34.768Z,77.49
2022-08-26T04:56:01.158Z,77.70
2022-08-26T04:58:27.684Z,77.87
2022-08-26T05:00:56.471Z,77.89
2022-08-26T05:03:24.391Z,77.92
2022-08-26T05:05:50.995Z,77.73
2022-08-26T05:08:19.000Z,77.73
2022-08-26T05:10:49.313Z,77.87
2022-08-26T05:13:17.966Z,77.80
2022-08-26T05:15:47.888Z,77.65
2022-08-26T05:18:21.264Z,77.95
2022-08-26T05:20:51.902Z,77.90
2022-08-26T05:23:22.607Z,77.82
2022-08-26T05:25:54.619Z,77.90
2022-08-26T05:28:22.500Z,77.83
2022-08-26T05:30:50.296Z,77.64
2022-08-26T05:33:18.424Z,77.56
2022-08-26T05:35:45.577Z,77.55
2022-08-26T05:38:16.067Z,77.59
2022-08-26T05:40:46.345Z,77.54
2022-08-26T05:43:13.882Z,77.38
2022-08-26T05:45:46.615Z,77.24
2022-08-26T05:48:15.455Z,77.14
2022-08-26T05:50:45.450Z,77.22
2022-08-26T05:53:13.582Z,77.13
2022-08-26T05:55:48.841Z,77.18
2022-08-26T05:58:17.424Z,77.16
2022-08-26T06:00:45.100Z,76.99
2022-08-26T06:03:11.697Z,77.11
2022-08-26T06:05:41.972Z,77.06
2022-08-26T06:08:16.487Z,76.94
2022-08-26T06:10:53.079Z,77.15
2022-08-26T06:13:22.192Z,77.26
2022-08-26T06:15:50.479Z,77.15
2022-08-26T06:18:19.870Z,76.87
2022-08-26T06:20:56.930Z,76.75
2022-08-26T06:23:45.229Z,77.12
2022-08-26T06:26:12.791Z,76.85
2022-08-26T06:28:39.160Z,76.71
2022-08-26T06:31:06.055Z,76.92
2022-08-26T06:33:32.831Z,77.01
2022-08-26T06:36:01.052Z,76.74
2022-08-26T06:38:27.632Z,76.62
2022-08-26T06:40:59.674Z,76.50
2022-08-26T06:43:28.010Z,76.80
2022-08-26T06:46:07.593Z,76.49
2022-08-26T06:48:36.651Z,76.21
2022-08-26T06:51:16.442Z,76.25
2022-08-26T06:53:47.714Z,75.92
2022-08-26T06:56:17.521Z,75.59
2022-08-26T06:58:43.905Z,75.23
2022-08-26T07:01:24.302Z,75.41
2022-08-26T07:03:54.248Z,75.41
2022-08-26T07:06:25.192Z,75.10
2022-08-26T07:08:54.075Z,75.24
2022-08-26T07:11:20.696Z,75.11
2022-08-26T07:13:47.832Z,75.11
2022-08-26T07:16:17.396Z,75.00
2022-08-26T07:18:45.336Z,74.73
2022-08-26T07:21:14.776Z,74.80
2022-08-26T07:23:41.442Z,75.09
2022-08-26T07:26:17.749Z,75.33
2022-08-26T07:28:46.252Z,74.61
2022-08-26T07:31:14.301Z,74.46
2022-08-26T07:33:42.112Z,74.85
2022-08-26T07:36:10.437Z,74.52
2022-08-26T07:38:38.983Z,74.48
2022-08-26T07:41:06.883Z,74.27
2022-08-26T07:43:36.329Z,74.00
2022-08-26T07:46:05.503Z,74.32
2022-08-26T07:48:32.832Z,74.30
2022-08-26T07:51:00.531Z,74.07
2022-08-26T07:53:27.168Z,73.97
2022-08-26T07:55:53.535Z,73.79
2022-08-26T07:58:20.112Z,73.94
2022-08-26T08:00:47.343Z,73.88
2022-08-26T08:03:15.035Z,73.80
2022-08-26T08:05:42.343Z,73.58
2022-08-26T08:08:27.010Z,73.34
2022-08-26T08:10:55.601Z,73.30
2022-08-26T08:13:22.968Z,73.53
2022-08-26T08:15:50.716Z,73.63
2022-08-26T08:18:17.837Z,73.97
2022-08-26T08:20:59.046Z,73.80
2022-08-26T08:23:25.825Z,73.43
2022-08-26T08:26:01.528Z,73.39
2022-08-26T08:28:28.392Z,73.57
2022-08-26T08:30:55.405Z,73.34
2022-08-26T08:33:22.534Z,73.52
2022-08-26T08:35:49.168Z,73.36
2022-08-26T08:38:16.512Z,73.25
2022-08-26T08:40:45.521Z,73.17
2022-08-26T08:43:14.995Z,73.15
2022-08-26T08:45:49.668Z,73.22
2022-08-26T08:48:27.799Z,72.88
2022-08-26T08:51:04.156Z,73.16
2022-08-26T08:53:35.679Z,72.97
2022-08-26T08:56:21.141Z,73.34
2022-08-26T08:59:04.249Z,73.26
2022-08-26T09:01:44.616Z,73.06
2022-08-26T09:04:17.337Z,72.88
2022-08-26T09:06:45.525Z,72.80
2022-08-26T09:09:24.006Z,72.69
2022-08-26T09:11:50.457Z,72.47
2022-08-26T09:14:16.841Z,72.59
2022-08-26T09:16:56.508Z,72.54
2022-08-26T09:19:49.220Z,72.65
2022-08-26T09:22:34.444Z,72.80
2022-08-26T09:25:01.473Z,72.07
2022-08-26T09:27:50.451Z,72.02
2022-08-26T09:30:33.586Z,72.23
2022-08-26T09:33:03.973Z,71.96
2022-08-26T09:35:40.123Z,71.95
2022-08-26T09:38:32.692Z,71.90
2022-08-26T09:41:05.297Z,71.92
2022-08-26T09:43:32.031Z,71.86
2022-08-26T09:46:13.207Z,71.46
2022-08-26T09:48:42.567Z,71.50
2022-08-26T09:51:23.961Z,71.09
2022-08-26T09:53:53.486Z,71.09
2022-08-26T09:56:38.285Z,70.99
2022-08-26T09:59:10.997Z,70.74
2022-08-26T10:04:12.159Z,70.46
2022-08-26T10:06:43.503Z,70.26
2022-08-26T10:09:13.743Z,69.68
2022-08-26T10:11:48.048Z,69.68
2022-08-26T10:14:37.066Z,69.69
2022-08-26T10:17:13.547Z,69.44
2022-08-26T10:19:57.180Z,69.81
2022-08-26T10:22:38.869Z,69.89
2022-08-26T10:25:09.416Z,68.66
2022-08-26T10:27:35.969Z,68.55
2022-08-26T10:30:10.369Z,68.66
2022-08-26T10:32:50.389Z,68.57
2022-08-26T10:35:19.239Z,68.67
2022-08-26T10:37:49.888Z,68.27
2022-08-26T10:40:23.519Z,68.32
2022-08-26T10:42:56.684Z,68.25
2022-08-26T10:45:27.110Z,68.40
2022-08-26T10:47:59.926Z,68.12
2022-08-26T10:50:41.722Z,67.66
2022-08-26T10:53:13.472Z,67.90
2022-08-26T10:55:54.035Z,67.30
2022-08-26T10:58:29.107Z,66.85
2022-08-26T11:01:24.162Z,66.22
2022-08-26T11:04:04.083Z,65.65
2022-08-26T11:06:31.280Z,66.02
2022-08-26T11:09:01.150Z,65.91
2022-08-26T11:11:39.520Z,66.14
2022-08-26T11:14:28.961Z,66.33
2022-08-26T11:16:57.704Z,65.77
2022-08-26T11:19:40.096Z,65.64
2022-08-26T11:22:36.301Z,64.80
2022-08-26T11:25:09.455Z,64.29
2022-08-26T11:27:38.373Z,63.81
2022-08-26T11:30:06.935Z,64.17
2022-08-26T11:32:34.041Z,63.09
2022-08-26T11:35:04.658Z,63.23
2022-08-26T11:37:41.216Z,63.71
2022-08-26T11:40:11.506Z,63.44
2022-08-26T11:42:46.292Z,63.57
2022-08-26T11:45:48.017Z,63.59
2022-08-26T11:48:38.464Z,63.82
2022-08-26T11:51:09.716Z,63.24
2022-08-26T11:53:41.195Z,63.75
2022-08-26T11:56:12.327Z,63.44
2022-08-26T11:58:46.768Z,63.66
2022-08-26T12:01:25.673Z,63.83
2022-08-26T12:03:52.834Z,62.99
2022-08-26T12:06:47.649Z,62.85
2022-08-26T12:09:22.245Z,62.28
2022-08-26T12:11:48.813Z,62.49
2022-08-26T12:14:22.617Z,63.24
2022-08-26T12:16:52.045Z,62.69
2022-08-26T12:19:32.630Z,62.08
2022-08-26T12:22:07.706Z,62.53
2022-08-26T12:24:34.142Z,63.57
2022-08-26T12:27:20.931Z,63.24
2022-08-26T12:30:12.443Z,62.52
2022-08-26T12:32:57.539Z,61.53
2022-08-26T12:35:25.373Z,60.70
2022-08-26T12:37:53.830Z,60.92
2022-08-26T12:40:35.387Z,61.01
2022-08-26T12:43:05.132Z,60.67
2022-08-26T12:45:37.131Z,61.33
2022-08-26T12:48:08.466Z,61.22
2022-08-26T12:50:38.856Z,61.65
2022-08-26T12:53:13.728Z,61.50
2022-08-26T12:55:44.000Z,61.88
2022-08-26T12:58:13.108Z,62.90
2022-08-26T13:00:41.930Z,62.90
2022-08-26T13:03:46.913Z,63.45
2022-08-26T13:06:22.333Z,63.65
2022-08-26T13:08:54.626Z,63.48
2022-08-26T13:11:40.532Z,63.26
2022-08-26T13:14:12.200Z,62.44
2022-08-26T13:16:49.206Z,61.76
2022-08-26T13:19:19.647Z,61.58
2022-08-26T13:21:49.396Z,61.97
2022-08-26T13:24:19.731Z,62.63
2022-08-26T13:26:48.916Z,62.02
2022-08-26T13:29:15.793Z,61.83
2022-08-26T13:31:46.830Z,61.08
2022-08-26T13:34:17.987Z,61.64
2022-08-26T13:36:45.176Z,61.17
2022-08-26T13:39:12.213Z,61.51
2022-08-26T13:41:38.760Z,61.43
2022-08-26T13:44:05.971Z,61.13
2022-08-26T13:46:32.576Z,60.71
2022-08-26T13:48:59.249Z,60.55
2022-08-26T13:51:26.939Z,60.09
2022-08-26T13:53:53.773Z,60.79
2022-08-26T13:56:20.448Z,61.01
2022-08-26T13:58:47.623Z,60.96
2022-08-26T14:01:17.061Z,61.47
2022-08-26T14:03:43.717Z,61.92
2022-08-26T14:06:10.491Z,62.40
2022-08-26T14:08:38.358Z,62.61
2022-08-26T14:11:04.965Z,62.71
2022-08-26T14:13:31.372Z,62.89
2022-08-26T14:15:59.567Z,62.82
2022-08-26T14:18:31.990Z,62.48
2022-08-26T14:20:59.152Z,62.59
2022-08-26T14:23:26.095Z,63.27
2022-08-26T14:25:52.784Z,63.09
2022-08-26T14:28:19.457Z,62.91
2022-08-26T14:30:54.044Z,63.25
2022-08-26T14:33:24.493Z,63.04
2022-08-26T14:35:50.857Z,63.17
2022-08-26T14:38:17.415Z,62.92
2022-08-26T14:40:47.324Z,62.92
2022-08-26T14:43:15.293Z,63.25
2022-08-26T14:45:45.488Z,63.05
2022-08-26T14:48:11.854Z,62.66
2022-08-26T14:50:38.289Z,62.29
2022-08-26T14:53:23.597Z,62.69
2022-08-26T14:55:50.515Z,62.51
2022-08-26T14:58:17.022Z,62.46
2022-08-26T15:00:43.553Z,63.34
2022-08-26T15:03:10.030Z,62.72
2022-08-26T15:05:36.632Z,62.41
2022-08-26T15:08:04.623Z,62.37
2022-08-26T15:10:31.088Z,62.26
2022-08-26T15:12:57.460Z,62.18
2022-08-26T15:15:23.920Z,62.21
2022-08-26T15:17:50.276Z,62.13
2022-08-26T15:20:16.697Z,60.95
2022-08-26T15:22:43.142Z,60.70
2022-08-26T15:25:10.326Z,59.92
2022-08-26T15:27:37.098Z,59.89
2022-08-26T15:30:10.509Z,60.23
2022-08-26T15:32:36.865Z,59.89
2022-08-26T15:35:08.683Z,60.09
2022-08-26T15:37:35.832Z,60.70
2022-08-26T15:40:02.647Z,60.26
2022-08-26T15:42:29.184Z,60.79
2022-08-26T15:44:55.663Z,60.02
2022-08-26T15:47:23.638Z,60.62
2022-08-26T15:49:50.032Z,60.64
2022-08-26T15:52:16.872Z,60.80
2022-08-26T15:54:43.300Z,60.70
2022-08-26T15:57:12.316Z,60.62
2022-08-26T15:59:39.478Z,60.37
2022-08-26T16:02:06.046Z,60.44
2022-08-26T16:04:32.473Z,60.54
2022-08-26T16:06:59.114Z,60.59
2022-08-26T16:09:27.077Z,61.09
2022-08-26T16:11:54.965Z,61.09
2022-08-26T16:14:22.459Z,61.16
2022-08-26T16:16:49.133Z,61.37
2022-08-26T16:19:15.748Z,61.08
2022-08-26T16:21:42.943Z,61.50
2022-08-26T16:24:09.676Z,60.82
2022-08-26T16:26:37.946Z,60.76
2022-08-26T16:29:08.627Z,61.10
2022-08-26T16:31:35.837Z,60.98
2022-08-26T16:34:02.384Z,60.39
2022-08-26T16:36:28.782Z,60.30
2022-08-26T16:38:56.311Z,60.63
2022-08-26T16:41:24.464Z,60.88
2022-08-26T16:43:54.279Z,60.89
2022-08-26T16:46:23.653Z,61.01
2022-08-26T16:48:50.201Z,60.67
2022-08-26T16:51:19.070Z,60.64
2022-08-26T16:53:45.902Z,60.71
2022-08-26T16:56:17.740Z,61.31
2022-08-26T16:58:44.620Z,61.14
2022-08-26T17:01:11.331Z,60.79
2022-08-26T17:03:37.756Z,61.04
2022-08-26T17:06:04.247Z,60.91
2022-08-26T17:08:30.631Z,61.20
2022-08-26T17:11:00.287Z,61.19
2022-08-26T17:13:35.403Z,61.73
2022-08-26T17:16:04.624Z,61.77
2022-08-26T17:18:31.328Z,61.60
2022-08-26T17:21:12.814Z,61.87
2022-08-26T17:23:41.375Z,61.33
2022-08-26T17:26:08.223Z,61.31
2022-08-26T17:28:34.793Z,61.65
2022-08-26T17:31:02.127Z,61.81
2022-08-26T17:33:29.143Z,61.90
2022-08-26T17:35:55.681Z,61.65
2022-08-26T17:38:22.613Z,61.71
2022-08-26T17:40:49.552Z,62.30
2022-08-26T17:43:16.651Z,62.35
2022-08-26T17:45:43.424Z,62.07
2022-08-26T17:48:10.988Z,62.16
2022-08-26T17:50:42.316Z,61.93
2022-08-26T17:53:09.166Z,62.01
2022-08-26T17:55:45.265Z,61.64
2022-08-26T17:58:11.761Z,61.79
2022-08-26T18:00:47.291Z,61.48
2022-08-26T18:03:13.935Z,61.71
2022-08-26T18:05:41.015Z,61.69
2022-08-26T18:08:07.365Z,61.74
2022-08-26T18:10:33.873Z,62.17
2022-08-26T18:13:01.206Z,61.93
2022-08-26T18:15:27.696Z,61.79
2022-08-26T18:17:54.100Z,62.30
2022-08-26T18:20:20.597Z,62.38
2022-08-26T18:22:48.152Z,63.30
2022-08-26T18:25:16.476Z,62.75
2022-08-26T18:27:43.699Z,63.16
2022-08-26T18:30:16.620Z,63.12
2022-08-26T18:32:43.415Z,63.28
2022-08-26T18:35:10.438Z,63.27
2022-08-26T18:37:37.460Z,63.36
2022-08-26T18:40:06.642Z,63.56
2022-08-26T18:42:33.397Z,64.04
2022-08-26T18:44:59.763Z,63.17
2022-08-26T18:47:26.118Z,63.21
2022-08-26T18:49:52.655Z,62.77
2022-08-26T18:52:19.147Z,62.98
2022-08-26T18:54:46.409Z,62.82
2022-08-26T18:57:12.915Z,62.78
2022-08-26T18:59:40.768Z,62.96
2022-08-26T19:02:08.370Z,62.82
2022-08-26T19:04:35.256Z,62.74
2022-08-26T19:07:01.703Z,63.16
2022-08-26T19:09:28.356Z,63.36
2022-08-26T19:14:27.846Z,62.96
2022-08-26T19:16:54.205Z,63.26
2022-08-26T19:19:24.000Z,63.42
2022-08-26T19:21:51.566Z,63.29
2022-08-26T19:24:19.056Z,63.47
2022-08-26T19:26:51.401Z,63.70
2022-08-26T19:29:26.017Z,63.84
2022-08-26T19:31:52.374Z,63.70
2022-08-26T19:34:20.907Z,63.92
2022-08-26T19:36:47.648Z,63.84
2022-08-26T19:39:14.133Z,63.89
2022-08-26T19:41:40.755Z,64.28
2022-08-26T19:44:13.146Z,64.50
2022-08-26T19:46:40.517Z,64.38
2022-08-26T19:49:07.120Z,64.43
2022-08-26T19:51:34.949Z,64.70
2022-08-26T19:54:01.958Z,64.83
2022-08-26T19:56:29.001Z,64.71
2022-08-26T19:58:56.529Z,65.05
2022-08-26T20:01:23.085Z,65.25
2022-08-26T20:03:49.769Z,65.10
2022-08-26T20:06:17.465Z,65.40
2022-08-26T20:08:44.583Z,65.43
2022-08-26T20:11:14.591Z,65.48
2022-08-26T20:13:41.311Z,65.32
2022-08-26T20:16:08.080Z,65.53
2022-08-26T20:18:52.996Z,65.55
2022-08-26T20:21:29.218Z,65.59
2022-08-26T20:24:09.113Z,65.55
2022-08-26T20:26:37.742Z,65.76
2022-08-26T20:29:06.011Z,65.94
2022-08-26T20:31:32.944Z,65.95
2022-08-26T20:33:59.353Z,65.88
2022-08-26T20:36:27.252Z,66.02
2022-08-26T20:38:55.044Z,65.75
2022-08-26T20:41:22.795Z,65.90
2022-08-26T20:43:49.213Z,66.08
2022-08-26T20:46:18.169Z,65.94
2022-08-26T20:48:46.686Z,65.83
2022-08-26T20:51:13.429Z,65.74
2022-08-26T20:53:40.168Z,65.52
2022-08-26T20:56:09.218Z,65.62
2022-08-26T20:58:36.996Z,65.50
2022-08-26T21:01:07.836Z,65.51
2022-08-26T21:03:35.564Z,65.31
2022-08-26T21:06:03.470Z,65.64
2022-08-26T21:08:29.877Z,65.71
2022-08-26T21:10:59.913Z,65.57
2022-08-26T21:13:26.286Z,65.58
2022-08-26T21:15:56.054Z,66.17
2022-08-26T21:18:22.587Z,66.17
2022-08-26T21:20:48.994Z,66.30
2022-08-26T21:23:15.395Z,66.43
2022-08-26T21:25:42.015Z,66.49
2022-08-26T21:28:08.469Z,66.42
2022-08-26T21:30:38.527Z,66.50
2022-08-26T21:33:04.922Z,66.55
2022-08-26T21:35:31.307Z,66.46
2022-08-26T21:37:57.717Z,66.49
2022-08-26T21:40:24.542Z,66.42
2022-08-26T21:42:50.922Z,66.27
2022-08-26T21:45:17.353Z,66.36
2022-08-26T21:47:43.988Z,66.15
2022-08-26T21:50:10.395Z,66.57
2022-08-26T21:52:37.943Z,66.57
2022-08-26T21:55:09.032Z,66.96
2022-08-26T21:57:37.944Z,66.79
2022-08-26T22:00:08.614Z,66.63
2022-08-26T22:02:35.057Z,66.63
2022-08-26T22:05:01.441Z,66.65
2022-08-26T22:07:27.815Z,66.55
2022-08-26T22:09:54.211Z,66.58
2022-08-26T22:12:20.633Z,66.50
2022-08-26T22:14:48.078Z,66.61
2022-08-26T22:17:14.861Z,66.60
2022-08-26T22:19:46.055Z,66.63
2022-08-26T22:22:14.261Z,66.61
2022-08-26T22:24:40.813Z,66.67
2022-08-26T22:27:07.210Z,66.67
2022-08-26T22:29:33.681Z,66.55
2022-08-26T22:32:00.939Z,66.58
2022-08-26T22:34:28.048Z,66.60
2022-08-26T22:36:54.801Z,66.55
2022-08-26T22:39:23.772Z,66.55
2022-08-26T22:41:50.877Z,66.78
2022-08-26T22:44:18.469Z,66.80
2022-08-26T22:46:45.674Z,66.62
2022-08-26T22:49:16.244Z,66.62
2022-08-26T22:51:44.344Z,66.93
2022-08-26T22:54:11.131Z,66.72
2022-08-26T22:56:38.015Z,66.72
2022-08-26T22:59:07.733Z,67.21
2022-08-26T23:01:39.409Z,67.21
2022-08-26T23:04:07.056Z,67.13
2022-08-26T23:06:38.056Z,67.31
2022-08-26T23:09:06.397Z,67.27
2022-08-26T23:11:33.366Z,67.35
2022-08-26T23:14:01.375Z,67.21
2022-08-26T23:16:39.130Z,67.29
2022-08-26T23:19:05.779Z,67.17
2022-08-26T23:21:32.173Z,67.18
2022-08-26T23:23:58.599Z,67.33
2022-08-26T23:26:24.962Z,67.21
2022-08-26T23:28:51.339Z,67.14
2022-08-26T23:31:17.740Z,67.55
2022-08-26T23:34:02.844Z,67.59
2022-08-26T23:36:29.728Z,67.56
2022-08-26T23:38:57.193Z,67.73
2022-08-26T23:41:24.333Z,67.53
2022-08-26T23:43:51.536Z,67.76
2022-08-26T23:46:18.427Z,67.96
2022-08-26T23:48:44.891Z,68.27
2022-08-26T23:51:30.021Z,68.43
2022-08-26T23:53:57.794Z,68.60
2022-08-26T23:56:24.554Z,68.90
2022-08-26T23:58:53.251Z,69.07
